CYOY

C J.H.L.(Joe) Lecomte) Heliport

Valcartier, Quebec, Canada
METAR CYOY 250500Z AUTO 00000KT 9SM CLR 09/05 A2973 RMK SLP071
Observed Flight Rules
May-25 @ 05:00 UTC (30 minutes ago) Visual Flight Rules
Visibility Clouds
9 miles
  • Clear skies
Temperatures Readings
Current 9°C / 48°F
Dewpoint 5°C / 41°F
Humidity 76%
Altimeter 29.73" Hg
Pressure 1007.1 hPa
Elevation 168
METAR CYOY 250500Z AUTO 00000KT 9SM CLR 09/05 A2973 RMK SLP071
Observed Flight Rules
May-25 @ 05:00 UTC
(30 minutes ago)
VFR
Clouds
  • Clear skies
Temperature Dewpoint
9°C / 48°F 5°C / 41°F
Humidity Altimeter Pressure
76% 29.73" Hg 1007.1 hPa